createdAt,value
2019-01-25T00:01:51.726Z,76.26
2019-01-25T00:04:24.611Z,75.54
2019-01-25T00:06:57.397Z,76.31
2019-01-25T00:09:30.139Z,75.90
2019-01-25T00:12:02.862Z,76.07
2019-01-25T00:14:35.578Z,75.82
2019-01-25T00:17:08.357Z,75.80
2019-01-25T00:19:41.074Z,76.39
2019-01-25T00:22:13.756Z,76.18
2019-01-25T00:24:46.554Z,76.60
2019-01-25T00:27:26.621Z,76.18
2019-01-25T00:29:59.362Z,76.01
2019-01-25T00:32:32.146Z,75.92
2019-01-25T00:35:05.563Z,76.70
2019-01-25T00:37:38.363Z,76.42
2019-01-25T00:40:13.613Z,76.38
2019-01-25T00:42:47.373Z,76.67
2019-01-25T00:45:20.186Z,76.69
2019-01-25T00:47:53.100Z,76.51
2019-01-25T00:50:25.883Z,76.72
2019-01-25T00:53:01.712Z,76.38
2019-01-25T00:55:34.719Z,76.73
2019-01-25T00:58:07.945Z,76.59
2019-01-25T01:00:41.826Z,76.36
2019-01-25T01:03:14.576Z,76.76
2019-01-25T05:20:28.357Z,81.81
2019-01-25T05:23:01.637Z,78.28
2019-01-25T05:25:34.519Z,79.02
2019-01-25T05:28:19.450Z,78.09
2019-01-25T05:31:05.573Z,77.78
2019-01-25T05:33:38.626Z,76.76
2019-01-25T05:36:11.389Z,78.18
2019-01-25T05:38:48.488Z,78.95
2019-01-25T05:41:28.207Z,79.39
2019-01-25T05:45:19.381Z,79.74
2019-01-25T05:51:53.927Z,78.57
2019-01-25T05:54:26.829Z,79.04
2019-01-25T05:56:59.620Z,79.65
2019-01-25T05:59:32.386Z,80.00
2019-01-25T06:02:05.063Z,80.03
2019-01-25T06:04:38.517Z,80.19
2019-01-25T06:07:18.544Z,79.42
2019-01-25T06:10:39.361Z,78.86
2019-01-25T06:13:35.033Z,79.53
2019-01-25T06:17:34.779Z,79.40
2019-01-25T06:19:50.160Z,79.70
2019-01-25T06:23:21.658Z,79.36
2019-01-25T06:26:37.664Z,79.71
2019-01-25T06:29:55.093Z,79.82
2019-01-25T06:38:53.885Z,80.17
2019-01-25T06:41:33.935Z,79.73
2019-01-25T06:44:31.483Z,79.83
2019-01-25T06:47:04.374Z,79.68
2019-01-25T06:49:37.083Z,79.90
2019-01-25T06:52:09.836Z,80.47
2019-01-25T06:54:42.593Z,79.99
2019-01-25T06:57:30.479Z,80.35
2019-01-25T07:00:03.249Z,81.03
2019-01-25T07:02:38.602Z,80.40
2019-01-25T07:05:11.401Z,80.68
2019-01-25T07:07:45.341Z,81.02
2019-01-25T07:10:19.411Z,80.55
2019-01-25T07:12:52.111Z,80.46
2019-01-25T07:15:25.417Z,80.66
2019-01-25T07:18:01.509Z,80.83
2019-01-25T07:20:35.760Z,80.70
2019-01-25T07:23:08.503Z,79.32
2019-01-25T07:25:44.485Z,79.38
2019-01-25T07:28:17.968Z,79.67
2019-01-25T07:30:50.749Z,78.42
2019-01-25T07:33:23.552Z,78.72
2019-01-25T07:35:56.514Z,78.69
2019-01-25T07:38:29.194Z,78.44
2019-01-25T07:41:01.948Z,76.80
2019-01-25T07:43:34.762Z,78.26
2019-01-25T07:46:07.794Z,78.58
2019-01-25T07:48:40.628Z,78.40
2019-01-25T07:51:13.861Z,78.51
2019-01-25T07:53:46.684Z,79.11
2019-01-25T07:56:19.423Z,78.57
2019-01-25T07:58:52.101Z,78.18
2019-01-25T08:01:25.037Z,77.76
2019-01-25T08:03:57.852Z,76.86
2019-01-25T08:06:30.930Z,74.56
2019-01-25T08:09:05.186Z,75.44
2019-01-25T08:11:38.710Z,75.19
2019-01-25T08:14:12.843Z,74.74
2019-01-25T08:16:45.726Z,74.23
2019-01-25T08:19:18.480Z,75.36
2019-01-25T08:21:51.205Z,75.11
2019-01-25T08:24:24.064Z,74.28
2019-01-25T08:26:56.748Z,73.29
2019-01-25T08:29:29.896Z,73.68
2019-01-25T08:32:02.597Z,75.96
2019-01-25T08:34:35.437Z,75.94
2019-01-25T08:37:08.187Z,72.70
2019-01-25T08:39:40.978Z,74.82
2019-01-25T08:42:15.569Z,74.46
2019-01-25T08:44:48.601Z,74.43
2019-01-25T08:47:21.324Z,72.34
2019-01-25T08:49:58.000Z,73.12
2019-01-25T08:52:29.681Z,74.31
2019-01-25T08:55:02.437Z,75.58
2019-01-25T08:57:35.257Z,75.84
2019-01-25T09:00:16.123Z,76.57
2019-01-25T09:02:49.019Z,76.51
2019-01-25T09:05:21.761Z,76.32
2019-01-25T09:07:54.511Z,75.16
2019-01-25T09:10:27.236Z,75.09
2019-01-25T09:13:00.037Z,74.40
2019-01-25T09:15:32.808Z,73.51
2019-01-25T09:18:06.184Z,72.36
2019-01-25T09:20:38.962Z,71.82
2019-01-25T09:23:11.748Z,70.22
2019-01-25T09:25:44.526Z,69.44
2019-01-25T09:28:17.342Z,71.27
2019-01-25T09:30:50.151Z,71.18
2019-01-25T09:33:22.973Z,70.51
2019-01-25T09:35:55.780Z,71.20
2019-01-25T09:38:28.934Z,66.55
2019-01-25T09:41:01.729Z,67.78
2019-01-25T09:43:34.546Z,69.00
2019-01-25T09:46:07.260Z,70.39
2019-01-25T09:48:40.053Z,71.18
2019-01-25T09:51:13.318Z,72.74
2019-01-25T09:53:46.125Z,73.06
2019-01-25T09:56:18.790Z,71.44
2019-01-25T09:58:51.921Z,72.58
2019-01-25T10:01:24.691Z,72.80
2019-01-25T10:03:57.377Z,72.29
2019-01-25T10:06:30.158Z,74.34
2019-01-25T10:09:04.510Z,74.44
2019-01-25T10:11:37.556Z,74.79
2019-01-25T10:14:10.449Z,74.09
2019-01-25T10:16:43.288Z,73.76
2019-01-25T10:19:16.099Z,75.05
2019-01-25T10:21:48.975Z,74.41
2019-01-25T10:24:21.652Z,74.23
2019-01-25T10:26:54.403Z,73.07
2019-01-25T10:29:27.141Z,72.00
2019-01-25T10:31:59.903Z,72.07
2019-01-25T10:34:32.691Z,72.89
2019-01-25T10:37:05.566Z,73.54
2019-01-25T10:39:38.265Z,73.15
2019-01-25T10:42:11.060Z,73.28
2019-01-25T10:44:43.834Z,72.73
2019-01-25T10:47:16.604Z,73.09
2019-01-25T10:49:49.291Z,72.10
2019-01-25T10:52:22.161Z,70.98
2019-01-25T10:54:54.980Z,72.10
2019-01-25T10:57:27.718Z,72.96
2019-01-25T11:00:00.571Z,72.18
2019-01-25T11:02:33.997Z,73.13
2019-01-25T11:05:08.682Z,73.01
2019-01-25T11:07:41.496Z,73.10
2019-01-25T11:10:14.246Z,72.06
2019-01-25T11:12:47.170Z,71.91
2019-01-25T11:15:22.320Z,72.22
2019-01-25T11:17:55.104Z,71.28
2019-01-25T11:20:29.203Z,71.84
2019-01-25T11:23:01.985Z,71.70
2019-01-25T11:25:38.246Z,70.59
2019-01-25T11:28:11.025Z,71.85
2019-01-25T11:30:43.844Z,72.04
2019-01-25T11:33:18.105Z,72.59
2019-01-25T11:35:50.823Z,73.12
2019-01-25T11:38:23.613Z,72.47
2019-01-25T11:40:56.383Z,71.25
2019-01-25T11:43:29.135Z,72.32
2019-01-25T11:46:02.905Z,72.30
2019-01-25T11:48:35.661Z,73.30
2019-01-25T11:51:08.399Z,71.65
2019-01-25T11:53:41.098Z,71.73
2019-01-25T11:56:13.797Z,72.28
2019-01-25T11:58:49.410Z,72.27
2019-01-25T12:03:08.431Z,71.68
2019-01-25T12:05:48.443Z,71.47
2019-01-25T12:08:21.201Z,71.34
2019-01-25T12:10:53.957Z,70.46
2019-01-25T12:13:26.800Z,71.73
2019-01-25T12:15:59.499Z,71.60
2019-01-25T12:18:32.256Z,72.70
2019-01-25T12:21:05.063Z,70.92
2019-01-25T12:23:37.930Z,72.30
2019-01-25T12:26:10.678Z,71.58
2019-01-25T12:28:43.389Z,71.09
2019-01-25T12:31:16.143Z,72.50
2019-01-25T12:33:48.894Z,73.81
2019-01-25T12:36:21.651Z,74.62
2019-01-25T12:38:54.406Z,74.79
2019-01-25T12:41:28.258Z,76.04
2019-01-25T12:44:01.065Z,76.32
2019-01-25T12:46:34.004Z,76.09
2019-01-25T12:49:06.781Z,75.02
2019-01-25T12:52:08.348Z,75.14
2019-01-25T12:54:39.770Z,74.37
2019-01-25T12:57:12.523Z,74.03
2019-01-25T12:59:46.181Z,74.72
2019-01-25T13:02:18.952Z,73.80
2019-01-25T13:04:51.738Z,74.25
2019-01-25T13:07:25.444Z,74.43
2019-01-25T13:09:58.354Z,73.94
2019-01-25T13:12:31.099Z,73.60
2019-01-25T13:15:05.526Z,73.38
2019-01-25T13:17:38.420Z,73.58
2019-01-25T13:20:16.352Z,73.92
2019-01-25T13:22:49.163Z,73.41
2019-01-25T13:29:41.487Z,73.76
2019-01-25T13:32:14.582Z,72.79
2019-01-25T13:35:41.350Z,72.61
2019-01-25T13:38:39.297Z,71.43
2019-01-25T13:41:18.293Z,73.51
2019-01-25T13:44:30.175Z,72.74
2019-01-25T13:47:14.073Z,72.13
2019-01-25T13:50:29.735Z,73.21
2019-01-25T13:53:39.077Z,72.31
2019-01-25T13:57:07.816Z,73.14
2019-01-25T14:00:27.037Z,72.97
2019-01-25T14:03:24.536Z,73.22
2019-01-25T14:06:08.079Z,71.88
2019-01-25T14:08:55.428Z,72.65
2019-01-25T14:11:37.380Z,72.64
2019-01-25T14:14:15.722Z,72.66
2019-01-25T14:16:57.998Z,72.71
2019-01-25T14:19:36.938Z,72.76
2019-01-25T14:22:18.806Z,72.73
2019-01-25T14:25:01.124Z,73.39
2019-01-25T14:27:42.186Z,73.74
2019-01-25T14:31:16.628Z,73.10
2019-01-25T14:34:13.475Z,73.65
2019-01-25T14:36:50.125Z,73.99
2019-01-25T14:39:22.965Z,74.26
2019-01-25T14:42:50.367Z,73.74
2019-01-25T14:45:30.971Z,74.13
2019-01-25T14:48:29.509Z,74.58
2019-01-25T14:51:05.505Z,74.71
2019-01-25T14:53:38.270Z,74.25
2019-01-25T14:56:11.007Z,74.40
2019-01-25T14:58:43.702Z,74.86
2019-01-25T15:01:16.710Z,74.99
2019-01-25T15:03:49.519Z,75.24
2019-01-25T15:06:22.370Z,75.55
2019-01-25T15:08:55.146Z,75.34
2019-01-25T15:11:28.030Z,75.04
2019-01-25T15:14:02.402Z,75.68
2019-01-25T15:16:35.471Z,75.64
2019-01-25T15:19:08.271Z,76.09
2019-01-25T15:21:41.051Z,76.31
2019-01-25T15:24:13.852Z,76.03
2019-01-25T15:26:46.547Z,76.84
2019-01-25T15:29:32.546Z,77.07
2019-01-25T15:33:28.861Z,77.03
2019-01-25T15:41:09.079Z,76.99
2019-01-25T15:44:32.125Z,76.71
2019-01-25T15:47:05.944Z,77.03
2019-01-25T15:49:38.865Z,77.67
2019-01-25T15:52:11.958Z,77.68
2019-01-25T15:58:25.809Z,77.63
2019-01-25T16:01:15.900Z,77.80
2019-01-25T16:04:23.228Z,78.17
2019-01-25T16:07:04.129Z,77.70
2019-01-25T16:09:37.144Z,78.16
2019-01-25T16:12:10.133Z,78.36
2019-01-25T16:14:43.117Z,78.54
2019-01-25T16:17:16.204Z,78.11
2019-01-25T16:19:49.247Z,77.90
2019-01-25T16:22:22.315Z,78.32
2019-01-25T16:24:57.092Z,77.63
2019-01-25T16:27:30.102Z,77.70
2019-01-25T16:30:03.126Z,78.26
2019-01-25T16:32:36.094Z,78.75
2019-01-25T16:35:09.773Z,78.72
2019-01-25T16:37:42.949Z,78.64
2019-01-25T16:40:19.389Z,78.37
2019-01-25T16:42:52.465Z,77.91
2019-01-25T16:45:29.228Z,78.24
2019-01-25T16:48:02.038Z,78.22
2019-01-25T16:50:35.929Z,79.15
2019-01-25T16:53:15.153Z,79.81
2019-01-25T16:55:49.436Z,79.63
2019-01-25T16:58:22.236Z,79.54
2019-01-25T17:00:55.047Z,79.78
2019-01-25T17:03:27.846Z,79.92
2019-01-25T17:06:00.692Z,79.63
2019-01-25T17:08:33.476Z,79.83
2019-01-25T17:11:06.391Z,80.18
2019-01-25T17:13:39.484Z,80.17
2019-01-25T17:16:12.250Z,80.41
2019-01-25T17:18:45.105Z,80.26
2019-01-25T17:21:17.786Z,80.18
2019-01-25T17:23:51.724Z,80.50
2019-01-25T17:26:25.662Z,80.17
2019-01-25T17:28:58.443Z,80.19
2019-01-25T17:31:31.317Z,79.74
2019-01-25T17:34:04.375Z,80.10
2019-01-25T17:36:38.269Z,80.26
2019-01-25T17:39:18.754Z,80.30
2019-01-25T17:41:51.535Z,80.49
2019-01-25T17:44:24.856Z,80.74
2019-01-25T17:46:57.764Z,80.76
2019-01-25T17:49:30.608Z,80.43
2019-01-25T17:52:03.456Z,80.47
2019-01-25T17:54:36.845Z,80.72
2019-01-25T17:57:09.800Z,80.90
2019-01-25T17:59:42.713Z,81.02
2019-01-25T18:02:15.647Z,80.79
2019-01-25T18:04:48.488Z,80.99
2019-01-25T18:07:21.483Z,81.06
2019-01-25T18:09:54.401Z,80.47
2019-01-25T18:12:27.315Z,80.41
2019-01-25T18:15:00.541Z,79.65
2019-01-25T18:17:33.325Z,79.06
2019-01-25T18:20:07.281Z,77.55
2019-01-25T18:22:40.185Z,77.54
2019-01-25T18:25:16.585Z,76.65
2019-01-25T18:27:55.329Z,75.99
2019-01-25T18:30:40.278Z,75.83
2019-01-25T18:33:12.978Z,75.97
2019-01-25T18:35:56.650Z,75.30
2019-01-25T18:39:36.729Z,75.14
2019-01-25T18:41:53.726Z,74.92
2019-01-25T18:44:26.410Z,74.58
2019-01-25T18:46:59.206Z,74.85
2019-01-25T18:51:05.879Z,74.79
2019-01-25T18:53:41.386Z,74.69
2019-01-25T18:56:16.641Z,74.73
2019-01-25T18:58:49.428Z,74.54
2019-01-25T19:02:09.027Z,74.77
2019-01-25T19:05:12.742Z,74.62
2019-01-25T19:08:17.434Z,74.18
2019-01-25T19:10:56.120Z,73.88
2019-01-25T19:13:44.535Z,74.04
2019-01-25T19:16:17.404Z,73.28
2019-01-25T19:19:24.931Z,73.69
2019-01-25T19:22:26.283Z,73.59
2019-01-25T19:28:07.608Z,73.39
2019-01-25T19:30:51.524Z,72.13
2019-01-25T19:33:38.682Z,71.96
2019-01-25T19:36:20.716Z,70.79
2019-01-25T19:39:14.276Z,69.87
2019-01-25T19:42:07.988Z,70.68
2019-01-25T19:44:45.665Z,70.52
2019-01-25T19:47:36.980Z,70.67
2019-01-25T19:53:13.067Z,70.29
2019-01-25T19:56:06.344Z,70.61
2019-01-25T19:59:01.593Z,70.55
2019-01-25T20:02:01.564Z,71.32
2019-01-25T20:04:36.440Z,71.04
2019-01-25T20:07:20.169Z,71.77
2019-01-25T20:10:35.601Z,72.00
2019-01-25T20:13:36.440Z,71.88
2019-01-25T20:16:17.552Z,72.12
2019-01-25T20:18:51.587Z,72.63
2019-01-25T20:21:24.342Z,72.25
2019-01-25T20:23:59.249Z,72.57
2019-01-25T20:26:32.310Z,72.70
2019-01-25T20:29:05.125Z,72.59
2019-01-25T20:31:38.264Z,73.09
2019-01-25T20:34:11.050Z,72.90
2019-01-25T20:36:44.926Z,72.60
2019-01-25T20:39:17.747Z,72.62
2019-01-25T20:41:50.691Z,73.18
2019-01-25T20:44:26.300Z,73.02
2019-01-25T20:46:59.133Z,72.98
2019-01-25T20:49:35.719Z,73.15
2019-01-25T20:56:22.932Z,73.98
2019-01-25T20:59:25.155Z,73.80
2019-01-25T21:05:49.158Z,73.96
2019-01-25T21:08:21.945Z,74.41
2019-01-25T21:10:54.663Z,74.68
2019-01-25T21:13:27.436Z,74.73
2019-01-25T21:16:00.162Z,74.99
2019-01-25T21:18:32.959Z,74.96
2019-01-25T21:21:05.831Z,74.71
2019-01-25T21:23:38.696Z,74.46
2019-01-25T21:26:11.492Z,74.94
2019-01-25T21:28:44.373Z,75.37
2019-01-25T21:31:17.280Z,75.07
2019-01-25T21:33:50.204Z,75.12
2019-01-25T21:36:22.950Z,75.05
2019-01-25T21:38:55.792Z,74.99
2019-01-25T21:41:28.731Z,75.06
2019-01-25T21:44:01.528Z,74.74
2019-01-25T21:46:40.100Z,74.95
2019-01-25T21:49:08.956Z,74.84
2019-01-25T21:51:41.670Z,74.84
2019-01-25T22:14:56.209Z,37.84
2019-01-25T22:22:30.201Z,18.60
2019-01-25T22:25:02.251Z,24.92
2019-01-25T22:27:34.799Z,29.76
2019-01-25T22:30:09.961Z,34.73
2019-01-25T22:32:42.785Z,38.77
2019-01-25T22:35:15.234Z,42.81
2019-01-25T22:37:47.255Z,45.45
2019-01-25T22:40:21.650Z,47.50
2019-01-25T22:42:56.945Z,49.56
2019-01-25T22:45:36.170Z,51.89
2019-01-25T22:48:08.161Z,53.22
2019-01-25T22:50:40.149Z,54.60
2019-01-25T22:53:12.124Z,55.96
2019-01-25T22:55:44.800Z,56.62
2019-01-25T22:58:17.035Z,57.65
2019-01-25T23:01:21.134Z,58.22
2019-01-25T23:04:37.391Z,58.68
2019-01-25T23:07:14.710Z,59.12
2019-01-25T23:09:57.713Z,59.67
2019-01-25T23:12:29.814Z,59.64
2019-01-25T23:15:01.801Z,60.21
2019-01-25T23:17:35.135Z,60.75
2019-01-25T23:22:43.996Z,61.27
2019-01-25T23:25:28.768Z,61.55
2019-01-25T23:28:14.482Z,61.92
2019-01-25T23:30:52.504Z,62.24
2019-01-25T23:33:23.660Z,62.45
2019-01-25T23:35:55.861Z,62.75
2019-01-25T23:38:28.042Z,62.62
2019-01-25T23:41:00.039Z,62.77
2019-01-25T23:43:32.049Z,62.79
2019-01-25T23:46:04.106Z,62.64
2019-01-25T23:48:36.342Z,62.75
2019-01-25T23:51:08.328Z,62.87
2019-01-25T23:53:40.516Z,62.84
2019-01-25T23:56:14.788Z,63.00
2019-01-25T23:58:46.787Z,63.00
